Time;durP1;ratioP1;P1;durP2;ratioP2;P2;SDS_P1;SDS_P2;PMS_P1;PMS_P2;Temp;Humidity;BMP_temperature;BMP_pressure;BME280_temperature;BME280_humidity;BME280_pressure;Samples;Min_cycle;Max_cycle;Signal;HPM_P1;HPM_P2
2023/04/07 00:01:43;;;;;;;15.02;11.15;;;7.80;99.90;;;;;;4941361;28;20452;-78
2023/04/07 00:04:09;;;;;;;14.77;11.00;;;7.90;99.90;;;;;;4957589;28;20047;-78
2023/04/07 00:06:35;;;;;;;15.82;10.57;;;7.70;99.90;;;;;;4941459;28;20043;-78
2023/04/07 00:09:01;;;;;;;15.90;11.25;;;7.80;99.90;;;;;;4974624;28;20062;-78
2023/04/07 00:11:26;;;;;;;14.60;11.05;;;7.80;99.90;;;;;;4974606;28;20073;-78
2023/04/07 00:13:52;;;;;;;15.73;11.15;;;7.80;99.90;;;;;;4974555;28;20481;-78
2023/04/07 00:16:18;;;;;;;15.55;11.18;;;7.90;99.90;;;;;;4974472;28;20043;-79
2023/04/07 00:18:44;;;;;;;13.65;10.45;;;7.90;99.90;;;;;;4957488;28;20054;-79
2023/04/07 00:21:09;;;;;;;14.50;10.48;;;8.00;99.90;;;;;;4974755;28;20051;-79
2023/04/07 00:23:35;;;;;;;14.70;10.38;;;7.70;99.90;;;;;;4974965;28;20043;-79
2023/04/07 00:26:01;;;;;;;16.17;11.57;;;8.00;99.90;;;;;;4958074;28;20047;-80
2023/04/07 00:28:26;;;;;;;14.23;10.57;;;7.60;99.90;;;;;;4957205;28;20046;-80
2023/04/07 00:30:52;;;;;;;14.40;10.30;;;7.70;99.90;;;;;;4974702;28;20469;-79
2023/04/07 00:33:18;;;;;;;13.32;9.73;;;7.70;99.90;;;;;;4941431;28;20053;-80
2023/04/07 00:35:44;;;;;;;15.38;11.02;;;7.70;99.90;;;;;;4940992;28;20085;-79
2023/04/07 00:38:10;;;;;;;14.43;10.27;;;7.90;99.90;;;;;;4974287;28;20042;-80
2023/04/07 00:40:35;;;;;;;13.50;9.52;;;7.80;99.90;;;;;;4974324;28;20050;-79
2023/04/07 00:43:01;;;;;;;13.38;10.20;;;7.70;99.90;;;;;;4974299;28;20043;-79
2023/04/07 00:45:27;;;;;;;14.60;9.85;;;7.70;99.90;;;;;;4957167;28;20063;-79
2023/04/07 00:47:52;;;;;;;14.15;10.57;;;7.70;99.90;;;;;;4957058;28;20101;-79
2023/04/07 00:50:18;;;;;;;13.55;9.60;;;7.80;99.90;;;;;;4957109;28;20050;-80
2023/04/07 00:52:44;;;;;;;13.02;10.00;;;7.90;99.90;;;;;;4976570;28;20042;-79
2023/04/07 00:55:10;;;;;;;12.55;9.90;;;7.80;99.90;;;;;;4977493;28;20504;-80
2023/04/07 00:57:36;;;;;;;12.68;8.90;;;7.80;99.90;;;;;;4978654;28;20058;-80
2023/04/07 01:00:05;;;;;;;12.65;9.25;;;7.70;99.90;;;;;;4960687;28;20138;-79
2023/04/07 01:02:42;;;;;;;11.77;9.15;;;7.70;99.90;;;;;;4977614;28;20062;-79
2023/04/07 01:05:38;;;;;;;12.25;9.35;;;7.70;99.90;;;;;;4977180;28;20485;-78
2023/04/07 01:08:15;;;;;;;13.55;9.48;;;7.70;99.90;;;;;;4961118;28;20117;-79
2023/04/07 01:10:51;;;;;;;14.15;9.95;;;7.70;99.90;;;;;;4960482;28;20133;-80
2023/04/07 01:13:55;;;;;;;12.65;9.65;;;7.50;99.90;;;;;;4961284;28;20058;-80
2023/04/07 01:16:29;;;;;;;13.07;9.32;;;7.70;99.90;;;;;;4898979;29;20044;-79
2023/04/07 01:19:02;;;;;;;14.63;10.20;;;8.00;99.90;;;;;;4898841;29;20052;-79
2023/04/07 01:21:30;;;;;;;13.07;10.13;;;7.80;99.90;;;;;;4942837;28;20113;-79
2023/04/07 01:24:18;;;;;;;14.55;9.77;;;7.70;99.90;;;;;;4977324;28;20122;-79
2023/04/07 01:26:45;;;;;;;12.88;9.32;;;7.60;99.90;;;;;;4959930;28;20054;-79
2023/04/07 01:29:35;;;;;;;11.93;9.85;;;7.60;99.90;;;;;;4977159;28;20053;-79
2023/04/07 01:32:04;;;;;;;12.05;8.90;;;7.60;99.90;;;;;;4977424;28;20444;-79
2023/04/07 01:34:31;;;;;;;11.23;9.27;;;7.70;99.90;;;;;;4977007;28;20456;-79
2023/04/07 01:37:01;;;;;;;14.02;9.95;;;7.70;99.90;;;;;;4977042;28;20039;-79
2023/04/07 01:39:27;;;;;;;13.82;10.13;;;7.70;99.90;;;;;;4977520;28;20046;-80
2023/04/07 01:41:55;;;;;;;14.73;9.45;;;7.70;99.90;;;;;;4976923;28;20093;-80
2023/04/07 01:44:22;;;;;;;10.98;8.10;;;7.70;99.90;;;;;;4977445;28;20051;-79
2023/04/07 01:46:49;;;;;;;13.85;10.18;;;7.70;99.90;;;;;;4976801;28;20082;-79
2023/04/07 01:49:17;;;;;;;12.77;9.63;;;7.60;99.90;;;;;;4976511;28;20560;-79
2023/04/07 01:51:48;;;;;;;13.93;9.63;;;7.70;99.90;;;;;;4977313;28;20042;-79
2023/04/07 01:54:16;;;;;;;13.18;9.27;;;7.70;99.90;;;;;;4976766;28;20076;-79
2023/04/07 01:56:42;;;;;;;11.10;8.90;;;7.70;99.90;;;;;;4976612;28;20057;-78
2023/04/07 01:59:08;;;;;;;14.63;10.10;;;7.70;99.90;;;;;;4976648;28;20493;-79
2023/04/07 02:01:34;;;;;;;14.35;10.43;;;7.70;99.90;;;;;;4959600;28;20039;-80
2023/04/07 02:04:06;;;;;;;12.90;9.38;;;7.80;99.90;;;;;;4958666;28;20042;-79
2023/04/07 02:06:38;;;;;;;13.00;10.00;;;7.90;99.90;;;;;;4976409;28;20043;-79
2023/04/07 02:09:09;;;;;;;12.68;9.55;;;7.60;99.90;;;;;;4977087;28;20378;-79
2023/04/07 02:11:37;;;;;;;13.63;9.60;;;7.60;99.90;;;;;;4976547;28;20494;-79
2023/04/07 02:14:05;;;;;;;12.50;9.38;;;7.60;99.90;;;;;;4976374;28;20051;-79
2023/04/07 02:16:31;;;;;;;13.07;9.43;;;7.70;99.90;;;;;;4976278;28;20543;-81
2023/04/07 02:18:58;;;;;;;14.02;10.00;;;7.60;99.90;;;;;;4976254;28;20133;-80
2023/04/07 02:21:26;;;;;;;13.95;9.90;;;7.60;99.90;;;;;;4976747;28;20397;-80
2023/04/07 02:23:51;;;;;;;12.50;9.60;;;7.70;99.90;;;;;;4976164;28;20054;-81
2023/04/07 02:26:17;;;;;;;13.68;9.95;;;7.60;99.90;;;;;;4958813;28;20047;-79
2023/04/07 02:28:43;;;;;;;13.18;9.95;;;7.70;99.90;;;;;;4959623;28;20441;-80
2023/04/07 02:31:09;;;;;;;14.52;9.80;;;7.60;99.90;;;;;;4958944;28;20039;-80
2023/04/07 02:33:34;;;;;;;14.68;10.00;;;7.60;99.90;;;;;;4976035;28;20095;-80
2023/04/07 02:36:00;;;;;;;15.55;9.77;;;7.60;99.90;;;;;;4942803;28;20489;-80
2023/04/07 02:38:26;;;;;;;13.85;10.40;;;7.60;99.90;;;;;;4975883;28;20370;-78
2023/04/07 02:40:52;;;;;;;14.07;9.98;;;7.80;99.90;;;;;;4975864;28;20051;-78
2023/04/07 02:43:19;;;;;;;14.73;10.35;;;7.70;99.90;;;;;;4975787;28;20106;-78
2023/04/07 02:45:45;;;;;;;15.93;10.40;;;7.80;99.90;;;;;;4959274;28;20485;-77
2023/04/07 02:48:11;;;;;;;13.38;9.73;;;7.80;99.90;;;;;;4942516;28;20051;-80
2023/04/07 02:50:36;;;;;;;13.98;10.65;;;7.50;99.90;;;;;;4975675;28;20053;-79
2023/04/07 02:53:02;;;;;;;14.98;11.13;;;7.60;99.90;;;;;;4959359;28;20065;-78
2023/04/07 02:55:28;;;;;;;13.80;9.85;;;7.60;99.90;;;;;;4976115;28;20043;-79
2023/04/07 02:57:53;;;;;;;14.43;11.02;;;7.70;99.90;;;;;;4975862;28;20056;-80
2023/04/07 03:00:19;;;;;;;16.58;10.55;;;7.50;99.90;;;;;;4975501;28;20054;-81
2023/04/07 03:02:45;;;;;;;15.93;10.90;;;7.50;99.90;;;;;;4976037;28;20058;-78
2023/04/07 03:05:11;;;;;;;13.15;10.45;;;7.50;99.90;;;;;;4975239;28;20073;-78
2023/04/07 03:07:36;;;;;;;14.70;10.43;;;7.70;99.90;;;;;;4975377;28;20137;-78
2023/04/07 03:10:02;;;;;;;13.70;10.13;;;7.70;99.90;;;;;;4975366;28;20133;-78
2023/04/07 03:12:28;;;;;;;14.27;10.27;;;7.50;99.90;;;;;;4975259;28;20050;-78
2023/04/07 03:14:53;;;;;;;13.73;10.70;;;7.40;99.90;;;;;;4957615;28;20055;-80
2023/04/07 03:17:19;;;;;;;13.52;10.18;;;7.40;99.90;;;;;;4975048;28;20125;-78
2023/04/07 03:19:45;;;;;;;14.30;9.98;;;7.50;99.90;;;;;;4974883;28;20130;-78
2023/04/07 03:22:11;;;;;;;15.00;11.15;;;7.50;99.90;;;;;;4975743;28;20090;-78
2023/04/07 03:24:38;;;;;;;14.00;10.18;;;7.70;99.90;;;;;;4958110;28;20503;-79
2023/04/07 03:27:04;;;;;;;12.20;9.75;;;7.60;99.90;;;;;;4974980;28;20097;-79
2023/04/07 03:29:29;;;;;;;15.82;10.23;;;7.50;99.90;;;;;;4957803;28;20046;-79
2023/04/07 03:31:55;;;;;;;15.15;9.93;;;7.60;99.90;;;;;;4958254;28;20054;-79
2023/04/07 03:34:22;;;;;;;13.10;10.00;;;7.50;99.90;;;;;;4974947;28;20121;-79
2023/04/07 03:36:48;;;;;;;14.70;10.40;;;7.50;99.90;;;;;;4957841;28;20051;-79
2023/04/07 03:39:13;;;;;;;16.13;10.25;;;7.50;99.90;;;;;;4958770;28;20105;-79
2023/04/07 03:41:39;;;;;;;13.77;10.82;;;7.60;99.90;;;;;;4958671;28;20365;-79
2023/04/07 03:44:05;;;;;;;14.23;11.05;;;7.50;99.90;;;;;;4974848;28;20043;-79
2023/04/07 03:46:31;;;;;;;14.85;10.32;;;7.40;99.90;;;;;;4957557;28;20043;-79
2023/04/07 03:48:57;;;;;;;13.05;9.68;;;7.60;99.90;;;;;;4974784;28;20077;-79
2023/04/07 03:51:22;;;;;;;16.95;11.30;;;7.40;99.90;;;;;;4974849;28;20090;-77
2023/04/07 03:53:48;;;;;;;15.52;10.45;;;7.60;99.90;;;;;;4974795;28;20405;-79
2023/04/07 03:56:14;;;;;;;13.70;9.73;;;7.50;99.90;;;;;;4957457;28;20468;-79
2023/04/07 03:58:43;;;;;;;14.70;10.27;;;7.70;99.90;;;;;;4975309;28;20050;-79
2023/04/07 04:01:09;;;;;;;13.90;9.93;;;7.70;99.90;;;;;;4974683;28;20051;-81
2023/04/07 04:03:35;;;;;;;15.75;10.50;;;7.40;99.90;;;;;;4974918;28;20485;-79
2023/04/07 04:06:00;;;;;;;14.73;10.80;;;7.50;99.90;;;;;;4941073;28;20042;-79
2023/04/07 04:08:26;;;;;;;13.93;10.20;;;7.60;99.90;;;;;;4974635;28;20046;-79
2023/04/07 04:10:52;;;;;;;14.73;10.07;;;7.30;99.90;;;;;;4957333;28;20125;-78
2023/04/07 04:13:17;;;;;;;14.45;9.68;;;7.40;99.90;;;;;;4974546;28;20093;-78
2023/04/07 04:15:43;;;;;;;15.05;10.70;;;7.40;99.90;;;;;;4958263;28;20046;-78
2023/04/07 04:18:09;;;;;;;13.75;10.68;;;7.60;99.90;;;;;;4975431;28;20047;-78
2023/04/07 04:20:34;;;;;;;14.00;10.65;;;7.50;99.90;;;;;;4974574;28;20051;-78
2023/04/07 04:23:00;;;;;;;13.70;10.52;;;7.30;99.90;;;;;;4957924;28;20046;-78
2023/04/07 04:25:26;;;;;;;15.32;10.73;;;7.30;99.90;;;;;;4957360;28;20125;-78
2023/04/07 04:27:51;;;;;;;14.80;10.68;;;7.30;99.90;;;;;;4977003;28;20080;-78
2023/04/07 04:30:17;;;;;;;17.08;11.75;;;7.30;99.90;;;;;;4978198;28;20058;-78
2023/04/07 04:32:43;;;;;;;16.05;11.07;;;7.30;99.90;;;;;;4978915;28;20046;-79
2023/04/07 04:35:09;;;;;;;16.35;11.50;;;7.40;99.90;;;;;;4978243;28;20097;-79
2023/04/07 04:37:34;;;;;;;15.80;11.13;;;7.30;99.90;;;;;;4978109;28;20047;-78
2023/04/07 04:40:00;;;;;;;16.63;10.85;;;7.40;99.90;;;;;;4978135;28;20051;-79
2023/04/07 04:42:26;;;;;;;14.10;11.02;;;7.40;99.90;;;;;;4978328;28;20422;-78
2023/04/07 04:44:52;;;;;;;14.82;11.02;;;7.20;99.90;;;;;;4977968;28;20054;-79
2023/04/07 04:47:18;;;;;;;15.65;11.18;;;7.30;99.90;;;;;;4978154;28;20039;-80
2023/04/07 04:49:44;;;;;;;15.10;11.18;;;7.20;99.90;;;;;;4960838;28;20130;-80
2023/04/07 04:52:10;;;;;;;14.38;11.10;;;7.20;99.90;;;;;;4977948;28;20137;-78
2023/04/07 04:54:35;;;;;;;15.95;11.02;;;7.20;99.90;;;;;;4977859;28;20101;-79
2023/04/07 04:57:02;;;;;;;15.70;11.27;;;7.20;99.90;;;;;;4960758;28;20050;-79
2023/04/07 04:59:28;;;;;;;16.52;11.57;;;7.30;99.90;;;;;;4977707;28;20046;-78
2023/04/07 05:01:54;;;;;;;16.88;11.63;;;7.30;99.90;;;;;;4977746;28;20054;-79
2023/04/07 05:04:20;;;;;;;16.95;11.90;;;7.20;99.90;;;;;;4960324;28;20047;-79
2023/04/07 05:06:46;;;;;;;16.48;11.60;;;7.10;99.90;;;;;;4977553;28;20062;-79
2023/04/07 05:09:11;;;;;;;15.57;11.52;;;7.20;99.90;;;;;;4944564;28;20047;-78
2023/04/07 05:11:37;;;;;;;15.38;11.02;;;7.20;99.90;;;;;;4960547;28;20125;-80
2023/04/07 05:14:03;;;;;;;17.02;12.43;;;7.50;99.90;;;;;;4960264;28;20397;-79
2023/04/07 05:16:28;;;;;;;17.38;12.20;;;7.20;99.90;;;;;;4977409;28;20129;-78
2023/04/07 05:18:54;;;;;;;18.00;13.05;;;7.20;99.90;;;;;;4959831;28;20058;-78
2023/04/07 05:21:20;;;;;;;17.75;11.85;;;7.20;99.90;;;;;;4977349;28;20051;-78
2023/04/07 05:23:46;;;;;;;14.95;11.70;;;7.30;99.90;;;;;;4977183;28;20051;-78
2023/04/07 05:26:12;;;;;;;18.10;12.50;;;7.20;99.90;;;;;;4960913;28;20042;-78
2023/04/07 05:28:38;;;;;;;18.17;12.88;;;7.40;99.90;;;;;;4977712;28;20050;-79
2023/04/07 05:31:03;;;;;;;16.33;11.65;;;7.20;99.90;;;;;;4977157;28;20042;-79
2023/04/07 05:33:29;;;;;;;17.83;12.77;;;7.20;99.90;;;;;;4959995;28;20043;-78
2023/04/07 05:35:55;;;;;;;19.00;12.85;;;7.30;99.90;;;;;;4960744;28;20047;-79
2023/04/07 05:38:20;;;;;;;18.98;13.10;;;7.30;99.90;;;;;;4976515;28;20106;-79
2023/04/07 05:40:46;;;;;;;18.85;13.80;;;7.20;99.90;;;;;;4959824;28;20053;-79
2023/04/07 05:43:12;;;;;;;21.35;14.07;;;7.20;99.90;;;;;;4977170;28;20477;-79
2023/04/07 05:45:37;;;;;;;18.60;13.55;;;7.30;99.90;;;;;;4976869;28;20468;-79
2023/04/07 05:48:03;;;;;;;18.80;13.90;;;7.30;99.90;;;;;;4976782;28;20051;-79
2023/04/07 05:50:29;;;;;;;17.65;13.57;;;7.30;99.90;;;;;;4959786;28;20493;-78
2023/04/07 05:52:55;;;;;;;19.15;13.70;;;7.30;99.90;;;;;;4977272;28;20082;-79
2023/04/07 05:55:20;;;;;;;17.70;12.90;;;7.50;99.90;;;;;;4976749;28;20061;-79
2023/04/07 05:57:46;;;;;;;17.73;12.18;;;7.50;99.90;;;;;;4976231;28;20058;-78
2023/04/07 06:00:13;;;;;;;20.73;13.68;;;7.50;99.90;;;;;;4959510;28;20050;-79
2023/04/07 06:02:39;;;;;;;19.30;13.90;;;7.40;99.90;;;;;;4976521;28;20085;-79
2023/04/07 06:05:05;;;;;;;19.02;13.98;;;7.30;99.90;;;;;;4959313;28;20157;-78
2023/04/07 06:07:31;;;;;;;22.17;14.20;;;7.40;99.90;;;;;;4977571;28;20047;-79
2023/04/07 06:09:57;;;;;;;20.60;13.60;;;7.40;99.90;;;;;;4959601;28;20531;-78
2023/04/07 06:12:22;;;;;;;16.98;12.75;;;7.50;99.90;;;;;;4976375;28;20102;-79
2023/04/07 06:14:53;;;;;;;17.58;12.43;;;7.70;99.90;;;;;;4976330;28;20046;-80
2023/04/07 06:17:19;;;;;;;18.95;12.98;;;7.50;99.90;;;;;;4975992;28;20516;-78
2023/04/07 06:19:45;;;;;;;23.67;13.77;;;7.50;99.90;;;;;;4976837;28;20051;-79
2023/04/07 06:22:11;;;;;;;15.43;11.45;;;7.80;99.90;;;;;;4976175;28;20509;-79
2023/04/07 06:24:37;;;;;;;17.15;12.43;;;7.60;99.90;;;;;;4976416;28;20134;-79
2023/04/07 06:27:02;;;;;;;16.45;12.50;;;7.60;99.90;;;;;;4975763;28;20547;-79
2023/04/07 06:29:35;;;;;;;17.15;12.38;;;7.70;99.90;;;;;;4976067;28;20054;-79
2023/04/07 06:32:01;;;;;;;16.75;11.95;;;7.70;99.90;;;;;;4976068;28;20090;-78
2023/04/07 06:34:27;;;;;;;18.60;12.43;;;7.70;99.90;;;;;;4975916;28;20117;-78
2023/04/07 06:36:52;;;;;;;17.58;12.65;;;8.00;99.90;;;;;;4975853;28;20400;-79
2023/04/07 06:39:18;;;;;;;20.58;13.57;;;7.80;99.90;;;;;;4958629;28;20436;-79
2023/04/07 06:41:45;;;;;;;18.65;13.27;;;7.80;99.90;;;;;;4976151;28;20054;-79
2023/04/07 06:44:11;;;;;;;19.17;13.23;;;7.50;99.90;;;;;;4975847;28;20105;-79
2023/04/07 06:46:38;;;;;;;18.00;13.35;;;8.80;99.90;;;;;;4958466;28;20054;-78
2023/04/07 06:49:04;;;;;;;23.58;15.52;;;7.90;99.90;;;;;;4975659;28;20049;-79
2023/04/07 06:51:30;;;;;;;19.55;13.68;;;8.10;99.90;;;;;;4975516;28;20485;-78
2023/04/07 06:53:56;;;;;;;21.77;15.27;;;7.90;99.90;;;;;;4975695;28;20053;-79
2023/04/07 06:56:22;;;;;;;19.42;14.68;;;7.90;99.90;;;;;;4975478;28;20153;-79
2023/04/07 06:58:48;;;;;;;22.65;15.50;;;8.00;99.90;;;;;;4975558;28;20054;-79
2023/04/07 07:01:14;;;;;;;23.35;15.38;;;7.90;99.90;;;;;;4943311;28;20112;-80
2023/04/07 07:03:40;;;;;;;22.58;15.43;;;8.10;99.90;;;;;;4976001;28;20193;-79
2023/04/07 07:06:06;;;;;;;21.05;15.45;;;8.00;99.90;;;;;;4975309;28;20129;-79
2023/04/07 07:08:32;;;;;;;21.23;16.02;;;8.10;99.90;;;;;;4975373;28;20077;-79
2023/04/07 07:10:57;;;;;;;23.27;16.23;;;8.10;99.90;;;;;;4975340;28;20182;-80
2023/04/07 07:13:27;;;;;;;23.45;16.63;;;8.30;99.90;;;;;;4975257;28;20046;-79
2023/04/07 07:15:54;;;;;;;23.85;16.40;;;8.10;99.90;;;;;;4975276;28;20057;-79
2023/04/07 07:18:19;;;;;;;24.27;17.90;;;8.20;99.90;;;;;;4975208;28;20054;-79
2023/04/07 07:20:45;;;;;;;23.65;17.42;;;8.20;99.90;;;;;;4975447;28;20051;-78
2023/04/07 07:23:11;;;;;;;24.40;17.58;;;8.30;99.90;;;;;;4958879;28;20035;-77
2023/04/07 07:25:38;;;;;;;25.30;17.95;;;8.30;99.90;;;;;;4957949;28;20074;-77
2023/04/07 07:28:03;;;;;;;27.67;18.02;;;8.30;99.90;;;;;;4975091;28;20457;-78
2023/04/07 07:30:29;;;;;;;27.17;17.85;;;8.30;99.90;;;;;;4975071;28;20047;-80
2023/04/07 07:32:55;;;;;;;23.90;17.40;;;8.30;99.90;;;;;;4975195;28;20089;-77
2023/04/07 07:35:21;;;;;;;24.23;17.02;;;8.20;99.90;;;;;;4975087;28;20552;-78
2023/04/07 07:37:47;;;;;;;28.23;17.67;;;8.40;99.90;;;;;;4975042;28;20481;-78
2023/04/07 07:40:13;;;;;;;24.90;17.02;;;8.40;99.90;;;;;;4975570;28;20374;-77
2023/04/07 07:42:39;;;;;;;24.02;16.83;;;8.30;99.90;;;;;;4975581;28;20047;-78
2023/04/07 07:45:05;;;;;;;24.52;16.08;;;8.40;99.90;;;;;;4974982;28;20070;-76
2023/04/07 07:47:31;;;;;;;24.00;16.17;;;8.40;99.90;;;;;;4974898;28;20047;-76
2023/04/07 07:49:57;;;;;;;24.48;16.88;;;8.40;99.90;;;;;;4957712;28;20078;-75
2023/04/07 07:52:23;;;;;;;24.13;16.98;;;8.50;99.90;;;;;;4976013;28;20043;-74
2023/04/07 07:54:50;;;;;;;22.17;15.90;;;8.40;99.90;;;;;;4974840;28;20485;-78
2023/04/07 07:57:16;;;;;;;22.60;16.65;;;8.50;99.90;;;;;;4974789;28;20066;-75
2023/04/07 07:59:42;;;;;;;21.80;14.93;;;8.40;99.90;;;;;;4975030;28;20390;-77
2023/04/07 08:02:09;;;;;;;21.40;15.15;;;8.50;99.90;;;;;;4956997;28;20050;-76
2023/04/07 08:04:36;;;;;;;20.45;14.95;;;8.50;99.90;;;;;;4974720;28;20055;-78
2023/04/07 08:07:03;;;;;;;21.70;15.43;;;8.60;99.90;;;;;;4974653;28;20043;-78
2023/04/07 08:09:30;;;;;;;21.83;15.20;;;8.60;99.90;;;;;;4974670;28;20043;-77
2023/04/07 08:11:56;;;;;;;21.10;14.05;;;8.70;99.90;;;;;;4974963;28;20177;-77
2023/04/07 08:14:22;;;;;;;20.70;14.50;;;8.80;99.90;;;;;;4957601;28;20130;-77
2023/04/07 08:16:48;;;;;;;20.65;13.63;;;8.80;99.90;;;;;;4957643;28;20058;-77
2023/04/07 08:19:14;;;;;;;18.95;13.55;;;8.90;99.90;;;;;;4974610;28;20086;-78
2023/04/07 08:21:40;;;;;;;18.02;12.75;;;8.90;99.90;;;;;;4974639;28;20110;-79
2023/04/07 08:24:06;;;;;;;17.75;13.15;;;9.00;99.90;;;;;;4975397;28;20050;-79
2023/04/07 08:26:32;;;;;;;16.95;12.02;;;9.00;99.90;;;;;;4975062;28;20078;-79
2023/04/07 08:28:58;;;;;;;16.63;12.40;;;9.10;99.90;;;;;;4957528;28;20047;-80
2023/04/07 08:31:24;;;;;;;17.23;11.77;;;9.10;99.90;;;;;;4974541;28;20043;-77
2023/04/07 08:33:53;;;;;;;18.48;12.40;;;9.20;99.90;;;;;;4974508;28;20057;-77
2023/04/07 08:36:19;;;;;;;17.50;12.00;;;9.30;99.90;;;;;;4974404;28;20134;-76
2023/04/07 08:38:45;;;;;;;16.65;12.30;;;9.40;99.90;;;;;;4974503;28;20382;-79
2023/04/07 08:41:16;;;;;;;15.90;11.35;;;9.50;99.90;;;;;;4974997;28;20137;-78
2023/04/07 08:43:45;;;;;;;14.70;11.20;;;9.60;99.90;;;;;;4975004;28;20366;-78
2023/04/07 08:46:12;;;;;;;17.08;12.23;;;9.60;99.90;;;;;;4957486;28;20397;-77
2023/04/07 08:48:39;;;;;;;15.25;11.05;;;9.60;99.90;;;;;;4957659;28;20051;-80
2023/04/07 08:51:10;;;;;;;14.13;10.48;;;9.60;99.90;;;;;;4975476;28;20380;-78
2023/04/07 08:53:42;;;;;;;15.15;10.57;;;9.70;99.90;;;;;;4974459;28;20061;-79
2023/04/07 08:56:11;;;;;;;14.27;10.57;;;9.70;99.90;;;;;;4974654;28;20412;-77
2023/04/07 08:58:38;;;;;;;13.95;10.15;;;9.70;99.90;;;;;;4974841;28;20050;-78
2023/04/07 09:01:08;;;;;;;16.33;10.75;;;9.70;99.90;;;;;;4974847;28;20082;-77
2023/04/07 09:03:34;;;;;;;13.82;10.82;;;9.70;99.90;;;;;;4974221;28;20050;-79
2023/04/07 09:06:01;;;;;;;13.85;10.15;;;9.70;99.90;;;;;;4974110;28;20054;-77
2023/04/07 09:08:27;;;;;;;15.32;11.40;;;9.80;99.90;;;;;;4973904;28;20054;-77
2023/04/07 09:10:54;;;;;;;12.20;9.32;;;9.90;99.90;;;;;;4940271;28;20105;-77
2023/04/07 09:13:20;;;;;;;13.20;9.57;;;9.90;99.90;;;;;;4974074;28;20089;-77
2023/04/07 09:15:45;;;;;;;13.80;9.88;;;10.00;99.90;;;;;;4961310;28;20465;-77
2023/04/07 09:18:11;;;;;;;13.93;10.05;;;10.00;99.90;;;;;;4960647;28;20126;-77
2023/04/07 09:21:00;;;;;;;12.23;9.60;;;10.00;99.90;;;;;;4978051;28;20051;-77
2023/04/07 09:23:32;;;;;;;12.75;10.10;;;10.10;99.90;;;;;;4977350;28;20051;-77
2023/04/07 09:26:00;;;;;;;13.13;9.77;;;10.20;99.90;;;;;;4944588;28;20049;-79
2023/04/07 09:28:41;;;;;;;12.38;9.90;;;10.20;99.90;;;;;;4961172;28;20436;-79
2023/04/07 09:31:06;;;;;;;12.85;9.73;;;10.30;99.90;;;;;;4977550;28;20045;-76
2023/04/07 09:33:35;;;;;;;11.30;8.80;;;10.30;99.90;;;;;;4976607;28;20532;-75
2023/04/07 09:36:01;;;;;;;11.43;8.90;;;10.40;99.90;;;;;;4977261;28;20443;-76
2023/04/07 09:38:33;;;;;;;11.07;8.27;;;10.40;99.90;;;;;;4976963;28;20053;-77
2023/04/07 09:41:15;;;;;;;10.93;8.60;;;10.50;99.90;;;;;;4959707;28;20043;-77
2023/04/07 09:43:44;;;;;;;11.02;8.77;;;10.60;99.90;;;;;;4976896;28;20054;-78
2023/04/07 09:46:15;;;;;;;11.10;8.57;;;10.60;99.90;;;;;;4976832;28;20452;-77
2023/04/07 09:48:42;;;;;;;10.75;8.52;;;10.60;99.90;;;;;;4976964;28;20050;-75
2023/04/07 09:51:16;;;;;;;10.60;7.93;;;10.60;99.90;;;;;;4976812;28;20465;-76
2023/04/07 09:53:48;;;;;;;10.30;7.65;;;10.70;99.90;;;;;;4960312;28;20430;-75
2023/04/07 09:56:21;;;;;;;10.65;7.78;;;10.70;99.90;;;;;;4977258;28;20140;-75
2023/04/07 09:58:47;;;;;;;9.82;7.22;;;10.70;99.90;;;;;;4959930;28;20474;-76
2023/04/07 10:01:16;;;;;;;11.98;7.28;;;10.70;99.90;;;;;;4976607;28;20055;-74
2023/04/07 10:03:43;;;;;;;10.60;7.60;;;10.80;99.90;;;;;;4976618;28;20050;-74
2023/04/07 10:06:09;;;;;;;8.75;6.70;;;10.80;99.90;;;;;;4959491;28;20425;-75
2023/04/07 10:08:37;;;;;;;8.57;6.65;;;10.80;99.90;;;;;;4976491;28;20086;-75
2023/04/07 10:11:04;;;;;;;7.35;5.95;;;10.90;99.90;;;;;;4976380;28;20050;-76
2023/04/07 10:13:32;;;;;;;7.85;5.90;;;10.90;99.90;;;;;;4976342;28;20051;-75
2023/04/07 10:15:59;;;;;;;8.02;5.60;;;10.90;99.90;;;;;;4977072;28;20381;-75
2023/04/07 10:18:30;;;;;;;7.10;5.65;;;11.00;99.90;;;;;;4976766;28;20058;-75
2023/04/07 10:21:00;;;;;;;7.82;5.57;;;11.00;99.90;;;;;;4976881;28;20039;-75
2023/04/07 10:23:54;;;;;;;6.22;5.03;;;11.10;99.90;;;;;;4976285;28;20059;-78
2023/04/07 10:26:25;;;;;;;6.05;5.05;;;11.20;99.90;;;;;;4975995;28;20042;-75
2023/04/07 10:28:56;;;;;;;6.70;5.00;;;11.30;99.90;;;;;;4976214;28;20093;-75
2023/04/07 10:31:23;;;;;;;7.35;5.30;;;11.40;99.90;;;;;;4976165;28;20082;-75
2023/04/07 10:33:51;;;;;;;7.90;6.03;;;11.50;99.90;;;;;;4975804;28;20523;-77
2023/04/07 10:36:21;;;;;;;8.18;6.20;;;11.50;99.90;;;;;;4976024;28;20113;-76
2023/04/07 10:39:07;;;;;;;8.57;6.20;;;11.50;99.90;;;;;;4976274;28;20519;-74
2023/04/07 10:41:40;;;;;;;6.65;5.28;;;11.60;99.90;;;;;;4962099;28;20058;-75
2023/04/07 10:44:08;;;;;;;7.45;6.03;;;11.70;99.90;;;;;;4959573;28;20098;-80
2023/04/07 10:46:47;;;;;;;7.28;5.82;;;11.90;99.90;;;;;;4958623;28;20047;-76
2023/04/07 10:49:13;;;;;;;8.13;5.80;;;11.90;99.90;;;;;;4975870;28;20058;-71
2023/04/07 10:51:39;;;;;;;6.75;5.53;;;12.00;99.90;;;;;;4975782;28;20475;-72
2023/04/07 10:54:15;;;;;;;7.80;6.28;;;12.10;99.90;;;;;;4975697;28;20097;-74
2023/04/07 10:57:03;;;;;;;7.72;6.05;;;12.20;99.90;;;;;;4976124;28;20138;-72
2023/04/07 10:59:30;;;;;;;7.47;6.10;;;12.30;99.90;;;;;;4975603;28;20061;-72
2023/04/07 11:02:14;;;;;;;9.05;6.00;;;12.50;99.90;;;;;;4975549;28;20053;-73
2023/04/07 11:04:42;;;;;;;6.93;5.90;;;12.60;99.90;;;;;;4975507;28;20401;-72
2023/04/07 11:07:09;;;;;;;7.82;5.97;;;12.70;99.90;;;;;;4975289;28;20130;-72
2023/04/07 11:09:35;;;;;;;8.95;6.13;;;12.70;99.90;;;;;;4975460;28;20047;-72
2023/04/07 11:12:01;;;;;;;8.23;6.63;;;12.70;99.90;;;;;;4975916;28;20054;-72
2023/04/07 11:14:31;;;;;;;8.52;7.25;;;12.80;99.90;;;;;;4975363;28;20129;-76
2023/04/07 11:17:00;;;;;;;9.57;7.03;;;12.80;99.90;;;;;;4958187;28;20206;-69
2023/04/07 11:19:26;;;;;;;7.97;7.05;;;12.80;99.90;;;;;;4975816;28;20385;-70
2023/04/07 11:22:12;;;;;;;8.73;6.47;;;12.90;99.90;;;;;;4958191;28;20532;-70
2023/04/07 11:24:38;;;;;;;8.18;7.10;;;12.90;99.90;;;;;;4958497;28;20042;-70
2023/04/07 11:27:04;;;;;;;10.48;7.25;;;13.00;99.90;;;;;;4975048;28;20532;-69
2023/04/07 11:29:33;;;;;;;10.02;6.93;;;13.00;99.90;;;;;;4975352;28;20070;-73
2023/04/07 11:32:01;;;;;;;8.27;6.53;;;13.00;99.90;;;;;;4975086;28;20055;-72
2023/04/07 11:34:35;;;;;;;8.00;6.53;;;13.00;99.90;;;;;;4975005;28;20053;-71
2023/04/07 11:37:24;;;;;;;8.70;6.65;;;12.90;99.90;;;;;;4974163;28;20047;-73
2023/04/07 11:39:54;;;;;;;8.05;6.55;;;12.90;99.90;;;;;;4975241;28;20116;-71
2023/04/07 11:42:36;;;;;;;10.13;7.20;;;13.00;99.90;;;;;;4974943;28;20051;-70
2023/04/07 11:45:03;;;;;;;10.55;7.70;;;12.90;99.90;;;;;;4974839;28;20051;-73
2023/04/07 11:47:36;;;;;;;8.63;7.30;;;12.80;99.90;;;;;;4974750;28;20042;-71
2023/04/07 11:50:02;;;;;;;8.63;7.03;;;12.80;99.90;;;;;;4974891;28;20051;-74
2023/04/07 11:52:28;;;;;;;9.50;7.60;;;12.80;99.90;;;;;;4974859;28;20102;-71
2023/04/07 11:54:54;;;;;;;9.32;7.53;;;12.80;99.90;;;;;;4975340;28;20445;-73
2023/04/07 11:57:27;;;;;;;8.45;6.90;;;12.80;99.90;;;;;;4957344;28;20051;-73
2023/04/07 12:00:11;;;;;;;9.75;6.95;;;12.90;99.90;;;;;;4957800;28;20086;-73
2023/04/07 12:02:37;;;;;;;12.02;7.38;;;13.00;99.90;;;;;;4974793;28;20126;-74
2023/04/07 12:05:04;;;;;;;10.45;7.80;;;13.10;99.90;;;;;;4974696;28;20105;-70
2023/04/07 12:07:30;;;;;;;9.18;7.25;;;13.20;99.90;;;;;;4974640;28;20050;-71
2023/04/07 12:09:58;;;;;;;8.98;6.97;;;13.30;99.90;;;;;;4975107;28;20397;-73
2023/04/07 12:12:28;;;;;;;9.10;7.45;;;13.40;99.90;;;;;;4974575;28;20070;-73
2023/04/07 12:14:55;;;;;;;8.07;6.68;;;13.50;99.90;;;;;;4975171;28;20146;-73
2023/04/07 12:17:22;;;;;;;9.73;7.22;;;13.60;99.90;;;;;;4974608;28;20089;-71
2023/04/07 12:19:47;;;;;;;9.43;7.15;;;13.70;99.90;;;;;;4974997;28;20051;-71
2023/04/07 12:22:13;;;;;;;8.05;7.20;;;13.80;99.90;;;;;;4957792;28;20078;-73
2023/04/07 12:24:39;;;;;;;10.05;7.47;;;13.90;99.90;;;;;;4975709;28;20125;-71
2023/04/07 12:27:05;;;;;;;11.20;7.65;;;13.90;99.90;;;;;;4958206;28;20046;-71
2023/04/07 12:29:30;;;;;;;9.00;7.60;;;14.00;99.90;;;;;;4974610;28;20055;-72
2023/04/07 12:31:56;;;;;;;8.45;7.38;;;14.10;99.90;;;;;;4974948;28;20051;-70
2023/04/07 12:34:22;;;;;;;12.55;7.78;;;14.20;99.90;;;;;;4974057;28;20055;-70
2023/04/07 12:36:47;;;;;;;10.05;7.40;;;14.30;99.90;;;;;;4974360;28;20050;-71
2023/04/07 12:39:15;;;;;;;9.95;7.72;;;14.30;99.90;;;;;;4974343;28;20054;-72
2023/04/07 12:41:40;;;;;;;8.93;8.00;;;14.40;99.90;;;;;;4974425;28;20058;-73
2023/04/07 12:44:07;;;;;;;8.82;7.93;;;14.40;99.90;;;;;;4957529;28;20067;-72